Time;durP1;ratioP1;P1;durP2;ratioP2;P2;SDS_P1;SDS_P2;PMS_P1;PMS_P2;Temp;Humidity;BMP_temperature;BMP_pressure;BME280_temperature;BME280_humidity;BME280_pressure;Samples;Min_cycle;Max_cycle;Signal;HPM_P1;HPM_P2
2021/09/20 00:02:06;;;;;;;;;;;12.50;85.10;;;;;;5033681;28;20365;-62
2021/09/20 00:04:32;;;;;;;;;;;12.50;85.10;;;;;;5015426;28;19924;-61
2021/09/20 00:06:57;;;;;;;;;;;12.50;85.20;;;;;;5033040;28;19943;-62
2021/09/20 00:09:23;;;;;;;;;;;12.50;85.20;;;;;;5033457;28;19918;-60
2021/09/20 00:11:48;;;;;;;;;;;12.50;85.30;;;;;;5032988;28;19975;-62
2021/09/20 00:14:14;;;;;;;;;;;12.50;85.40;;;;;;5032762;28;19923;-60
2021/09/20 00:16:39;;;;;;;;;;;12.50;85.40;;;;;;5032676;28;19917;-60
2021/09/20 00:19:05;;;;;;;;;;;12.50;85.50;;;;;;5015648;28;19971;-62
2021/09/20 00:21:30;;;;;;;;;;;12.50;85.60;;;;;;5033214;28;19990;-61
2021/09/20 00:23:56;;;;;;;;;;;12.40;85.70;;;;;;5032908;28;19941;-62
2021/09/20 00:26:21;;;;;;;;;;;12.40;85.70;;;;;;5014956;28;20449;-61
2021/09/20 00:28:47;;;;;;;;;;;12.40;85.80;;;;;;5032886;28;20295;-60
2021/09/20 00:31:13;;;;;;;;;;;12.40;85.90;;;;;;5033065;28;20381;-62
2021/09/20 00:33:40;;;;;;;;;;;12.40;86.00;;;;;;5014462;28;20216;-62
2021/09/20 00:36:06;;;;;;;;;;;12.40;86.00;;;;;;5032756;28;19999;-62
2021/09/20 00:38:31;;;;;;;;;;;12.40;86.10;;;;;;5032292;28;20357;-61
2021/09/20 00:40:57;;;;;;;;;;;12.40;86.20;;;;;;5033179;28;19991;-61
2021/09/20 00:43:22;;;;;;;;;;;12.40;86.20;;;;;;5014698;28;19917;-62
2021/09/20 00:45:48;;;;;;;;;;;12.30;86.10;;;;;;5032370;28;19928;-61
2021/09/20 00:48:13;;;;;;;;;;;12.30;86.20;;;;;;5032720;28;20008;-61
2021/09/20 00:50:39;;;;;;;;;;;12.30;86.30;;;;;;5032403;28;19917;-61
2021/09/20 00:53:05;;;;;;;;;;;12.30;86.40;;;;;;5047997;28;19940;-61
2021/09/20 00:55:30;;;;;;;;;;;12.30;86.40;;;;;;5031833;28;22453;-61
2021/09/20 00:57:57;;;;;;;;;;;12.30;86.60;;;;;;5032594;28;20289;-62
2021/09/20 01:00:23;;;;;;;;;;;12.30;86.50;;;;;;5032145;28;20381;-62
2021/09/20 01:02:49;;;;;;;;;;;12.30;86.50;;;;;;5032572;28;20006;-61
2021/09/20 01:05:14;;;;;;;;;;;12.30;86.60;;;;;;5046711;28;19960;-62
2021/09/20 01:07:40;;;;;;;;;;;12.30;86.70;;;;;;5032498;28;19928;-62
2021/09/20 01:10:06;;;;;;;;;;;12.30;86.70;;;;;;5032439;28;20521;-61
2021/09/20 01:12:32;;;;;;;;;;;12.20;86.60;;;;;;5031882;28;19928;-61
2021/09/20 01:14:58;;;;;;;;;;;12.20;86.70;;;;;;5031821;28;20008;-61
2021/09/20 01:17:24;;;;;;;;;;;12.20;86.80;;;;;;5031863;28;19917;-62
2021/09/20 01:19:49;;;;;;;;;;;12.20;86.90;;;;;;5014761;28;20017;-61
2021/09/20 01:22:16;;;;;;;;;;;12.20;86.80;;;;;;5031671;28;19920;-61
2021/09/20 01:24:42;;;;;;;;;;;12.20;86.80;;;;;;5031135;28;20008;-60
2021/09/20 01:27:08;;;;;;;;;;;12.20;87.00;;;;;;5031942;28;20009;-62
2021/09/20 01:29:34;;;;;;;;;;;12.20;87.00;;;;;;5031713;28;19928;-62
2021/09/20 01:32:00;;;;;;;;;;;12.20;87.00;;;;;;5031957;28;19917;-61
2021/09/20 01:34:26;;;;;;;;;;;12.20;87.00;;;;;;5031395;28;20004;-62
2021/09/20 01:36:52;;;;;;;;;;;12.10;86.60;;;;;;5030769;28;20001;-61
2021/09/20 01:39:18;;;;;;;;;;;12.20;87.10;;;;;;5031504;28;19956;-62
2021/09/20 01:41:45;;;;;;;;;;;12.20;87.10;;;;;;5032003;28;19917;-60
2021/09/20 01:44:10;;;;;;;;;;;12.10;86.90;;;;;;5031409;28;19924;-61
2021/09/20 01:46:36;;;;;;;;;;;12.10;86.90;;;;;;5031428;28;19921;-62
2021/09/20 01:49:01;;;;;;;;;;;12.10;86.90;;;;;;5031336;28;19928;-61
2021/09/20 01:51:27;;;;;;;;;;;12.10;87.10;;;;;;5031761;28;19917;-61
2021/09/20 01:53:53;;;;;;;;;;;12.10;87.20;;;;;;5031758;28;20011;-62
2021/09/20 01:56:18;;;;;;;;;;;12.10;87.10;;;;;;5031023;28;19917;-62
2021/09/20 01:58:44;;;;;;;;;;;12.10;87.10;;;;;;5031682;28;20413;-61
2021/09/20 02:01:09;;;;;;;;;;;12.10;87.10;;;;;;5031358;28;19917;-62
2021/09/20 02:03:35;;;;;;;;;;;12.10;87.10;;;;;;5031705;28;19917;-62
2021/09/20 02:06:00;;;;;;;;;;;12.10;87.10;;;;;;5030542;28;19925;-61
2021/09/20 02:08:26;;;;;;;;;;;12.00;87.10;;;;;;5014113;28;19923;-60
2021/09/20 02:10:51;;;;;;;;;;;12.00;87.20;;;;;;5031176;28;20289;-62
2021/09/20 02:13:17;;;;;;;;;;;12.00;87.20;;;;;;5031685;28;19917;-62
2021/09/20 02:15:42;;;;;;;;;;;12.00;87.20;;;;;;5031276;28;19921;-62
2021/09/20 02:18:08;;;;;;;;;;;12.00;87.30;;;;;;5031096;28;19921;-62
2021/09/20 02:20:33;;;;;;;;;;;12.00;87.30;;;;;;5031634;28;20352;-61
2021/09/20 02:22:59;;;;;;;;;;;12.00;87.40;;;;;;5031139;28;19948;-60
2021/09/20 02:25:25;;;;;;;;;;;12.00;87.40;;;;;;5031148;28;19961;-62
2021/09/20 02:27:50;;;;;;;;;;;12.00;87.40;;;;;;5013423;28;19988;-62
2021/09/20 02:30:16;;;;;;;;;;;12.00;87.40;;;;;;5013870;28;19917;-62
2021/09/20 02:32:41;;;;;;;;;;;11.90;87.40;;;;;;5031389;28;19921;-62
2021/09/20 02:35:07;;;;;;;;;;;11.90;87.50;;;;;;5030698;28;20005;-61
2021/09/20 02:37:33;;;;;;;;;;;11.90;87.50;;;;;;5033931;28;19925;-62
2021/09/20 02:39:59;;;;;;;;;;;11.90;87.50;;;;;;5034938;28;19917;-62
2021/09/20 02:42:25;;;;;;;;;;;11.90;87.60;;;;;;5035097;28;19917;-62
2021/09/20 02:44:50;;;;;;;;;;;11.90;87.50;;;;;;5034270;28;20023;-62
2021/09/20 02:47:16;;;;;;;;;;;11.90;87.60;;;;;;5034966;28;19917;-62
2021/09/20 02:49:41;;;;;;;;;;;11.90;87.70;;;;;;5034564;28;19921;-62
2021/09/20 02:52:07;;;;;;;;;;;11.90;87.70;;;;;;5035071;28;19921;-61
2021/09/20 02:54:33;;;;;;;;;;;11.90;87.70;;;;;;5034569;28;19917;-61
2021/09/20 02:57:00;;;;;;;;;;;11.90;87.70;;;;;;5034533;28;20270;-61
2021/09/20 02:59:26;;;;;;;;;;;11.90;87.80;;;;;;5049957;28;19927;-61
2021/09/20 03:01:51;;;;;;;;;;;11.90;87.80;;;;;;5034421;28;20004;-62
2021/09/20 03:04:17;;;;;;;;;;;11.80;87.80;;;;;;5034600;28;19917;-61
2021/09/20 03:06:42;;;;;;;;;;;11.90;87.80;;;;;;5034296;28;19959;-62
2021/09/20 03:09:08;;;;;;;;;;;11.80;87.80;;;;;;5034788;28;19949;-62
2021/09/20 03:11:33;;;;;;;;;;;11.80;88.00;;;;;;5034190;28;19971;-62
2021/09/20 03:13:59;;;;;;;;;;;11.80;87.90;;;;;;5034687;28;19923;-62
2021/09/20 03:16:24;;;;;;;;;;;11.80;88.00;;;;;;5033691;28;19968;-63
2021/09/20 03:18:50;;;;;;;;;;;11.80;88.00;;;;;;5016846;28;19917;-64
2021/09/20 03:21:19;;;;;;;;;;;11.80;88.20;;;;;;5034368;28;19971;-62
2021/09/20 03:23:44;;;;;;;;;;;11.80;88.10;;;;;;5034083;28;19921;-62
2021/09/20 03:26:10;;;;;;;;;;;11.80;88.20;;;;;;5033893;28;20369;-62
2021/09/20 03:28:36;;;;;;;;;;;11.80;88.20;;;;;;5033893;28;19924;-62
2021/09/20 03:31:01;;;;;;;;;;;11.70;88.20;;;;;;5034308;28;19928;-62
2021/09/20 03:33:27;;;;;;;;;;;11.80;88.10;;;;;;5033644;28;19917;-62
2021/09/20 03:35:52;;;;;;;;;;;11.80;88.10;;;;;;5033778;28;19917;-62
2021/09/20 03:38:18;;;;;;;;;;;11.70;88.20;;;;;;5033789;28;20293;-63
2021/09/20 03:40:43;;;;;;;;;;;11.70;88.40;;;;;;5034109;28;20396;-62
2021/09/20 03:43:09;;;;;;;;;;;11.70;88.40;;;;;;5033966;28;19921;-62
2021/09/20 03:45:34;;;;;;;;;;;11.70;88.40;;;;;;5033193;28;19921;-62
2021/09/20 03:48:00;;;;;;;;;;;11.80;88.50;;;;;;5032865;28;19944;-62
2021/09/20 03:50:25;;;;;;;;;;;11.80;88.50;;;;;;5033476;28;20007;-63
2021/09/20 03:52:52;;;;;;;;;;;11.70;88.40;;;;;;5033975;28;19967;-62
2021/09/20 03:55:17;;;;;;;;;;;11.70;88.30;;;;;;5032990;28;19917;-63
2021/09/20 03:57:43;;;;;;;;;;;11.70;88.30;;;;;;5033786;28;20000;-63
2021/09/20 04:00:10;;;;;;;;;;;11.70;88.50;;;;;;5033258;28;19917;-63
2021/09/20 04:02:36;;;;;;;;;;;11.70;88.50;;;;;;5033660;28;19917;-62
2021/09/20 04:05:01;;;;;;;;;;;11.70;88.50;;;;;;5032981;28;19924;-63
2021/09/20 04:07:27;;;;;;;;;;;11.70;88.40;;;;;;5015594;28;19929;-62
2021/09/20 04:09:52;;;;;;;;;;;11.70;88.40;;;;;;5033498;28;19924;-62
2021/09/20 04:12:18;;;;;;;;;;;11.70;88.50;;;;;;5033133;28;20297;-61
2021/09/20 04:14:43;;;;;;;;;;;11.70;88.50;;;;;;5033077;28;19925;-62
2021/09/20 04:17:09;;;;;;;;;;;11.70;88.50;;;;;;5032821;28;19917;-62
2021/09/20 04:19:35;;;;;;;;;;;11.70;88.60;;;;;;5015810;28;20008;-63
2021/09/20 04:22:01;;;;;;;;;;;11.70;88.50;;;;;;5034549;28;19917;-63
2021/09/20 04:24:26;;;;;;;;;;;11.60;88.50;;;;;;5048496;28;19925;-62
2021/09/20 04:26:52;;;;;;;;;;;11.70;88.50;;;;;;5052151;28;20406;-61
2021/09/20 04:29:17;;;;;;;;;;;11.60;88.40;;;;;;5052972;28;19917;-63
2021/09/20 04:31:43;;;;;;;;;;;11.60;88.10;;;;;;5052962;28;20007;-62
2021/09/20 04:34:08;;;;;;;;;;;11.60;88.50;;;;;;5052590;28;20339;-63
2021/09/20 04:36:34;;;;;;;;;;;11.70;88.70;;;;;;5052666;28;20389;-63
2021/09/20 04:39:00;;;;;;;;;;;11.70;88.70;;;;;;5052507;28;19992;-61
2021/09/20 04:41:25;;;;;;;;;;;11.60;88.60;;;;;;5053042;28;20511;-63
2021/09/20 04:43:51;;;;;;;;;;;11.60;88.50;;;;;;5052302;28;20013;-61
2021/09/20 04:46:16;;;;;;;;;;;11.60;88.50;;;;;;5052260;28;19920;-63
2021/09/20 04:48:42;;;;;;;;;;;11.70;88.60;;;;;;5052711;28;19920;-63
2021/09/20 04:51:07;;;;;;;;;;;11.60;88.60;;;;;;5052398;28;19917;-62
2021/09/20 04:53:33;;;;;;;;;;;11.60;88.70;;;;;;5043465;28;19917;-61
2021/09/20 04:55:58;;;;;;;;;;;11.60;88.60;;;;;;5041052;28;19917;-61
2021/09/20 04:58:24;;;;;;;;;;;11.60;88.60;;;;;;5041291;28;20393;-61
2021/09/20 05:00:49;;;;;;;;;;;11.60;88.70;;;;;;5040487;28;19921;-63
2021/09/20 05:03:15;;;;;;;;;;;11.60;88.60;;;;;;5043937;28;19917;-63
2021/09/20 05:05:40;;;;;;;;;;;11.60;88.70;;;;;;5039938;28;19921;-63
2021/09/20 05:08:06;;;;;;;;;;;11.60;88.70;;;;;;5039085;28;19917;-63
2021/09/20 05:10:32;;;;;;;;;;;11.60;89.20;;;;;;5032371;28;19921;-63
2021/09/20 05:12:57;;;;;;;;;;;11.60;88.70;;;;;;5031930;28;19924;-63
2021/09/20 05:15:23;;;;;;;;;;;11.60;88.80;;;;;;5031967;28;20340;-63
2021/09/20 05:17:48;;;;;;;;;;;11.60;89.10;;;;;;5031918;28;20528;-63
2021/09/20 05:20:14;;;;;;;;;;;11.60;88.70;;;;;;5032295;28;19920;-63
2021/09/20 05:22:40;;;;;;;;;;;11.60;88.90;;;;;;5031963;28;19971;-65
2021/09/20 05:25:06;;;;;;;;;;;11.60;89.40;;;;;;5031883;28;19925;-62
2021/09/20 05:27:31;;;;;;;;;;;11.60;88.80;;;;;;5031622;28;19921;-61
2021/09/20 05:29:58;;;;;;;;;;;11.60;88.80;;;;;;5032204;28;19921;-62
2021/09/20 05:32:24;;;;;;;;;;;11.60;88.90;;;;;;5031568;28;19963;-62
2021/09/20 05:34:49;;;;;;;;;;;11.60;89.00;;;;;;5034449;28;19967;-62
2021/09/20 05:37:15;;;;;;;;;;;11.60;89.10;;;;;;5048314;28;20413;-63
2021/09/20 05:39:41;;;;;;;;;;;11.60;89.10;;;;;;5051453;28;19963;-63
2021/09/20 05:42:07;;;;;;;;;;;11.70;89.10;;;;;;5051752;28;19923;-61
2021/09/20 05:44:32;;;;;;;;;;;11.70;89.10;;;;;;5050621;28;19920;-61
2021/09/20 05:46:58;;;;;;;;;;;11.70;89.00;;;;;;5051517;28;19924;-62
2021/09/20 05:49:23;;;;;;;;;;;11.70;89.10;;;;;;5049952;28;20034;-62
2021/09/20 05:51:49;;;;;;;;;;;11.70;89.20;;;;;;5034047;28;19939;-61
2021/09/20 05:54:14;;;;;;;;;;;11.70;89.20;;;;;;5051525;28;19923;-61
2021/09/20 05:56:40;;;;;;;;;;;11.80;89.20;;;;;;5051230;28;19913;-62
2021/09/20 05:59:06;;;;;;;;;;;11.80;89.20;;;;;;5051671;28;19924;-62
2021/09/20 06:01:31;;;;;;;;;;;11.80;89.20;;;;;;5050686;28;19917;-62
2021/09/20 06:03:57;;;;;;;;;;;11.80;89.10;;;;;;5051599;28;19913;-62
2021/09/20 06:06:22;;;;;;;;;;;11.90;89.30;;;;;;5050627;28;19925;-62
2021/09/20 06:08:48;;;;;;;;;;;11.90;89.40;;;;;;5051579;28;19917;-62
2021/09/20 06:11:14;;;;;;;;;;;12.00;89.40;;;;;;5051749;28;19912;-62
2021/09/20 06:13:40;;;;;;;;;;;12.00;89.20;;;;;;5055675;28;19962;-62
2021/09/20 06:16:06;;;;;;;;;;;12.10;89.40;;;;;;5055169;28;20348;-62
2021/09/20 06:18:32;;;;;;;;;;;12.10;89.30;;;;;;5037354;28;19928;-63
2021/09/20 06:20:57;;;;;;;;;;;12.10;89.20;;;;;;5055041;28;19913;-63
2021/09/20 06:23:23;;;;;;;;;;;12.20;89.20;;;;;;5054770;28;19924;-61
2021/09/20 06:25:49;;;;;;;;;;;12.20;89.20;;;;;;5055043;28;20010;-62
2021/09/20 06:28:15;;;;;;;;;;;12.30;89.20;;;;;;5054786;28;19917;-62
2021/09/20 06:30:40;;;;;;;;;;;12.30;89.20;;;;;;5055492;28;19917;-62
2021/09/20 06:33:06;;;;;;;;;;;12.30;89.00;;;;;;5020552;28;19966;-62
2021/09/20 06:35:31;;;;;;;;;;;12.40;89.10;;;;;;5037012;28;19968;-62
2021/09/20 06:37:57;;;;;;;;;;;12.40;89.10;;;;;;5054898;28;19917;-63
2021/09/20 06:40:23;;;;;;;;;;;12.50;89.10;;;;;;5055171;28;19917;-63
2021/09/20 06:42:49;;;;;;;;;;;12.50;89.00;;;;;;5055028;28;20015;-61
2021/09/20 06:45:15;;;;;;;;;;;12.60;88.70;;;;;;5054083;28;20347;-62
2021/09/20 06:47:40;;;;;;;;;;;12.60;88.50;;;;;;5054975;28;19940;-62
2021/09/20 06:50:06;;;;;;;;;;;12.60;88.50;;;;;;5054525;28;20400;-63
2021/09/20 06:52:32;;;;;;;;;;;12.60;88.70;;;;;;5037216;28;20372;-62
2021/09/20 06:55:01;;;;;;;;;;;12.70;88.60;;;;;;5054149;28;19921;-61
2021/09/20 06:57:26;;;;;;;;;;;12.70;88.50;;;;;;5054686;28;19924;-62
2021/09/20 06:59:52;;;;;;;;;;;12.80;88.50;;;;;;5054603;28;19951;-62
2021/09/20 07:02:17;;;;;;;;;;;12.90;88.30;;;;;;5054842;28;19923;-62
2021/09/20 07:04:43;;;;;;;;;;;12.90;88.20;;;;;;5053886;28;19924;-62
2021/09/20 07:07:08;;;;;;;;;;;12.90;88.00;;;;;;5053504;28;19920;-62
2021/09/20 07:09:34;;;;;;;;;;;13.00;87.80;;;;;;5053831;28;19917;-62
2021/09/20 07:12:00;;;;;;;;;;;13.00;87.90;;;;;;5053540;28;20012;-63
2021/09/20 07:14:26;;;;;;;;;;;13.10;87.80;;;;;;5054229;28;19924;-63
2021/09/20 07:16:52;;;;;;;;;;;13.20;87.80;;;;;;5053937;28;19917;-63
2021/09/20 07:19:17;;;;;;;;;;;13.20;87.70;;;;;;5054449;28;20004;-63
2021/09/20 07:21:44;;;;;;;;;;;13.20;87.70;;;;;;5053856;28;19923;-63
2021/09/20 07:24:09;;;;;;;;;;;13.30;88.20;;;;;;5054148;28;19931;-63
2021/09/20 07:26:35;;;;;;;;;;;13.40;87.20;;;;;;5053724;28;19954;-62
2021/09/20 07:29:01;;;;;;;;;;;13.40;87.10;;;;;;5053072;28;19923;-63
2021/09/20 07:31:26;;;;;;;;;;;13.50;87.20;;;;;;5054204;28;19917;-63
2021/09/20 07:33:52;;;;;;;;;;;13.50;87.10;;;;;;5053918;28;19921;-63
2021/09/20 07:36:18;;;;;;;;;;;13.60;86.90;;;;;;5053545;28;19944;-62
2021/09/20 07:38:44;;;;;;;;;;;13.60;86.80;;;;;;5053362;28;20351;-62
2021/09/20 07:41:10;;;;;;;;;;;13.60;86.60;;;;;;5053093;28;19963;-62
2021/09/20 07:43:35;;;;;;;;;;;13.70;86.40;;;;;;5053310;28;19982;-63
2021/09/20 07:46:02;;;;;;;;;;;13.70;86.30;;;;;;5068575;28;19929;-62
2021/09/20 07:48:27;;;;;;;;;;;13.60;86.20;;;;;;5053323;28;19917;-62
2021/09/20 07:50:53;;;;;;;;;;;13.70;86.00;;;;;;5053766;28;19913;-62
2021/09/20 07:53:19;;;;;;;;;;;13.70;85.70;;;;;;5053489;28;19951;-63
2021/09/20 07:55:45;;;;;;;;;;;13.70;86.00;;;;;;5052634;28;20369;-62
2021/09/20 07:58:13;;;;;;;;;;;13.70;86.00;;;;;;5053355;28;20388;-63
2021/09/20 08:00:42;;;;;;;;;;;13.80;86.00;;;;;;5053014;28;19917;-63
2021/09/20 08:03:09;;;;;;;;;;;13.90;85.80;;;;;;5053716;28;20365;-63
2021/09/20 08:05:36;;;;;;;;;;;14.00;86.00;;;;;;5052683;28;19921;-61
2021/09/20 08:08:02;;;;;;;;;;;14.00;85.70;;;;;;5053610;28;20147;-63
2021/09/20 08:10:28;;;;;;;;;;;14.10;85.00;;;;;;5052339;28;19917;-61
2021/09/20 08:12:53;;;;;;;;;;;14.10;84.90;;;;;;5053320;28;19919;-63
2021/09/20 08:15:20;;;;;;;;;;;14.20;85.10;;;;;;5052608;28;20284;-61
2021/09/20 08:17:46;;;;;;;;;;;14.30;85.10;;;;;;5052527;28;20272;-63
2021/09/20 08:20:12;;;;;;;;;;;14.40;85.00;;;;;;5052578;28;20007;-61
2021/09/20 08:22:38;;;;;;;;;;;14.50;84.50;;;;;;5034273;28;19982;-62
2021/09/20 08:25:04;;;;;;;;;;;14.60;84.80;;;;;;5067146;28;20427;-62
2021/09/20 08:27:30;;;;;;;;;;;14.80;84.50;;;;;;5051668;28;19917;-61
2021/09/20 08:29:56;;;;;;;;;;;14.90;84.30;;;;;;5052463;28;19964;-61
2021/09/20 08:32:21;;;;;;;;;;;15.00;83.20;;;;;;5051853;28;19928;-62
2021/09/20 08:34:47;;;;;;;;;;;15.10;83.90;;;;;;5033650;28;20451;-62
2021/09/20 08:37:13;;;;;;;;;;;15.30;83.60;;;;;;5051414;28;19928;-61
2021/09/20 08:39:38;;;;;;;;;;;15.40;82.40;;;;;;5034105;28;19963;-63
2021/09/20 08:42:04;;;;;;;;;;;15.50;82.60;;;;;;5052128;28;19924;-61
2021/09/20 08:44:30;;;;;;;;;;;15.60;82.20;;;;;;5051563;28;19924;-62
2021/09/20 08:46:56;;;;;;;;;;;15.60;81.60;;;;;;5051866;28;19925;-63
2021/09/20 08:49:23;;;;;;;;;;;15.60;80.80;;;;;;5048680;28;19956;-63
2021/09/20 08:51:49;;;;;;;;;;;15.70;80.90;;;;;;5051617;28;19921;-61
2021/09/20 08:54:17;;;;;;;;;;;15.70;80.80;;;;;;5051389;28;19990;-61
2021/09/20 08:56:43;;;;;;;;;;;15.70;79.70;;;;;;5049198;28;20296;-61
2021/09/20 08:59:08;;;;;;;;;;;15.70;78.90;;;;;;5052021;28;19917;-63
2021/09/20 09:01:35;;;;;;;;;;;15.60;79.10;;;;;;5051604;28;20077;-63
2021/09/20 09:04:21;;;;;;;;;;;15.60;79.60;;;;;;5052228;28;19983;-63
2021/09/20 09:06:56;;;;;;;;;;;15.70;79.50;;;;;;5051863;28;19932;-64
2021/09/20 09:09:26;;;;;;;;;;;15.70;78.90;;;;;;5051495;28;20015;-63
2021/09/20 09:11:52;;;;;;;;;;;15.70;78.30;;;;;;5051796;28;19916;-62
2021/09/20 09:14:18;;;;;;;;;;;15.70;78.00;;;;;;5051532;28;20299;-64
2021/09/20 09:16:44;;;;;;;;;;;15.80;78.00;;;;;;5049406;28;19927;-64
2021/09/20 09:19:10;;;;;;;;;;;15.80;77.80;;;;;;5050144;28;19917;-64
2021/09/20 09:21:37;;;;;;;;;;;15.80;77.30;;;;;;5048338;28;19920;-63
2021/09/20 09:24:06;;;;;;;;;;;15.90;77.60;;;;;;5050386;28;19927;-63
2021/09/20 09:26:31;;;;;;;;;;;15.90;76.90;;;;;;5048365;28;19925;-64
2021/09/20 09:29:10;;;;;;;;;;;16.00;76.90;;;;;;5049018;28;19917;-64
2021/09/20 09:31:37;;;;;;;;;;;16.00;76.60;;;;;;5050448;28;19917;-64
2021/09/20 09:34:19;;;;;;;;;;;16.10;76.70;;;;;;5051990;28;20003;-64
2021/09/20 09:36:45;;;;;;;;;;;16.20;76.50;;;;;;5050798;28;20289;-64
2021/09/20 09:39:11;;;;;;;;;;;16.40;76.20;;;;;;5051638;28;19921;-63
2021/09/20 09:41:43;;;;;;;;;;;16.50;75.80;;;;;;5051443;28;19925;-64
2021/09/20 09:44:13;;;;;;;;;;;16.50;75.30;;;;;;5051701;28;19924;-62
2021/09/20 09:46:46;;;;;;;;;;;16.60;75.30;;;;;;5049864;28;19925;-65
2021/09/20 09:49:16;;;;;;;;;;;16.70;75.10;;;;;;5051548;28;19920;-64
2021/09/20 09:51:59;;;;;;;;;;;16.90;75.20;;;;;;5051130;28;19940;-63
2021/09/20 09:54:26;;;;;;;;;;;17.00;74.60;;;;;;5051322;28;20368;-63
2021/09/20 09:57:09;;;;;;;;;;;17.10;74.10;;;;;;5033007;28;19916;-63
2021/09/20 09:59:35;;;;;;;;;;;17.10;74.00;;;;;;5051450;28;19923;-64
2021/09/20 10:02:13;;;;;;;;;;;17.10;72.60;;;;;;5033301;28;19913;-64
2021/09/20 10:04:48;;;;;;;;;;;17.10;72.30;;;;;;5051214;28;20343;-62
2021/09/20 10:07:20;;;;;;;;;;;16.90;71.90;;;;;;5051175;28;20400;-63
2021/09/20 10:09:46;;;;;;;;;;;16.90;72.00;;;;;;5051666;28;20373;-64
2021/09/20 10:12:11;;;;;;;;;;;16.80;71.60;;;;;;5051150;28;19913;-64
2021/09/20 10:14:38;;;;;;;;;;;16.70;71.10;;;;;;5051224;28;19989;-64
2021/09/20 10:17:04;;;;;;;;;;;16.60;70.60;;;;;;5033016;28;20296;-64
2021/09/20 10:19:30;;;;;;;;;;;16.50;70.90;;;;;;5051361;28;19923;-63
2021/09/20 10:21:55;;;;;;;;;;;16.50;70.70;;;;;;5033084;28;19928;-64
2021/09/20 10:24:22;;;;;;;;;;;16.40;70.80;;;;;;5051245;28;19921;-64
2021/09/20 10:26:48;;;;;;;;;;;16.40;71.00;;;;;;5051057;28;20027;-63
2021/09/20 10:29:16;;;;;;;;;;;16.40;71.20;;;;;;5051232;28;20011;-64
2021/09/20 10:31:42;;;;;;;;;;;16.40;70.80;;;;;;5051242;28;19923;-64
2021/09/20 10:34:17;;;;;;;;;;;16.40;70.90;;;;;;5050825;28;19920;-64
2021/09/20 10:37:00;;;;;;;;;;;16.50;71.00;;;;;;5051061;28;19917;-64
2021/09/20 10:39:44;;;;;;;;;;;16.60;71.00;;;;;;5051126;28;20327;-64
2021/09/20 10:42:13;;;;;;;;;;;16.80;71.60;;;;;;5051113;28;19917;-64
2021/09/20 10:44:39;;;;;;;;;;;17.10;72.00;;;;;;5050423;28;20296;-64
2021/09/20 10:47:12;;;;;;;;;;;17.50;71.00;;;;;;5050809;28;19928;-63
2021/09/20 10:49:45;;;;;;;;;;;17.70;70.30;;;;;;5050759;28;19918;-64
2021/09/20 10:52:12;;;;;;;;;;;17.80;69.60;;;;;;5050424;28;19917;-64
2021/09/20 10:54:37;;;;;;;;;;;17.90;69.60;;;;;;5050426;28;19994;-64
2021/09/20 10:57:14;;;;;;;;;;;18.00;68.80;;;;;;5050456;28;20369;-63
2021/09/20 10:59:39;;;;;;;;;;;18.00;67.80;;;;;;5035696;28;19932;-63
2021/09/20 11:02:12;;;;;;;;;;;17.90;67.80;;;;;;5054204;28;19916;-64
2021/09/20 11:04:40;;;;;;;;;;;17.80;67.90;;;;;;5053354;28;19924;-64
2021/09/20 11:07:05;;;;;;;;;;;17.70;67.00;;;;;;5053823;28;19921;-64
2021/09/20 11:09:32;;;;;;;;;;;17.60;66.90;;;;;;5053410;28;20349;-68
2021/09/20 11:12:02;;;;;;;;;;;17.50;66.80;;;;;;5053915;28;19920;-65
2021/09/20 11:14:36;;;;;;;;;;;17.50;67.20;;;;;;5049634;28;20296;-62
2021/09/20 11:17:16;;;;;;;;;;;17.40;67.00;;;;;;5053649;28;19998;-63
2021/09/20 11:19:44;;;;;;;;;;;17.40;66.80;;;;;;5053329;28;19916;-62
2021/09/20 11:22:13;;;;;;;;;;;17.30;66.80;;;;;;5053676;28;19917;-63
2021/09/20 11:24:40;;;;;;;;;;;17.20;67.00;;;;;;5052791;28;19925;-64
2021/09/20 11:27:22;;;;;;;;;;;17.30;67.10;;;;;;5069028;28;19921;-64
2021/09/20 11:29:55;;;;;;;;;;;17.20;67.20;;;;;;5053182;28;19917;-64
2021/09/20 11:32:21;;;;;;;;;;;17.20;67.40;;;;;;5035557;28;20293;-64
2021/09/20 11:34:50;;;;;;;;;;;17.20;67.50;;;;;;5052496;28;19917;-64
2021/09/20 11:37:19;;;;;;;;;;;17.30;67.20;;;;;;5053433;28;20297;-63
2021/09/20 11:39:46;;;;;;;;;;;17.30;66.80;;;;;;5052619;28;20051;-62
2021/09/20 11:42:13;;;;;;;;;;;17.20;66.90;;;;;;5053161;28;21207;-63
2021/09/20 11:44:46;;;;;;;;;;;17.30;67.30;;;;;;5067918;28;19995;-65
2021/09/20 11:47:13;;;;;;;;;;;17.30;67.30;;;;;;5053163;28;19925;-63
2021/09/20 11:49:38;;;;;;;;;;;17.30;66.90;;;;;;5052817;28;19989;-64
2021/09/20 11:52:04;;;;;;;;;;;17.20;67.10;;;;;;5053053;28;20412;-63
2021/09/20 11:54:43;;;;;;;;;;;17.20;66.80;;;;;;5052423;28;19924;-64
2021/09/20 11:57:10;;;;;;;;;;;17.20;67.10;;;;;;5035252;28;19917;-64
2021/09/20 11:59:35;;;;;;;;;;;17.30;66.70;;;;;;5052449;28;19924;-64
2021/09/20 12:02:01;;;;;;;;;;;17.30;66.30;;;;;;5052859;28;19917;-64
2021/09/20 12:04:45;;;;;;;;;;;17.30;66.70;;;;;;5052584;28;19924;-64
2021/09/20 12:07:11;;;;;;;;;;;17.40;66.90;;;;;;5050398;28;19921;-63
2021/09/20 12:09:36;;;;;;;;;;;17.40;66.30;;;;;;5051924;28;20288;-64
2021/09/20 12:12:09;;;;;;;;;;;17.50;66.30;;;;;;5052161;28;20501;-65
2021/09/20 12:14:34;;;;;;;;;;;17.50;65.80;;;;;;5052358;28;19924;-64
2021/09/20 12:17:00;;;;;;;;;;;17.50;65.70;;;;;;5067595;28;19920;-64
2021/09/20 12:19:27;;;;;;;;;;;17.60;65.80;;;;;;5052390;28;19921;-63
2021/09/20 12:22:00;;;;;;;;;;;17.60;65.40;;;;;;5034597;28;19916;-63
2021/09/20 12:24:25;;;;;;;;;;;17.60;65.20;;;;;;5052146;28;20003;-64
2021/09/20 12:26:51;;;;;;;;;;;17.60;65.10;;;;;;5033752;28;20011;-65
2021/09/20 12:29:16;;;;;;;;;;;17.70;65.30;;;;;;5052578;28;20377;-62
2021/09/20 12:31:43;;;;;;;;;;;17.70;64.70;;;;;;5051950;28;19928;-63
2021/09/20 12:34:15;;;;;;;;;;;17.70;64.60;;;;;;5052447;28;19917;-65
2021/09/20 12:36:44;;;;;;;;;;;17.60;64.30;;;;;;5051382;28;19917;-65
2021/09/20 12:39:11;;;;;;;;;;;17.60;64.30;;;;;;5052333;28;19952;-63
2021/09/20 12:41:45;;;;;;;;;;;17.70;64.20;;;;;;5052100;28;19999;-65
2021/09/20 12:44:14;;;;;;;;;;;17.60;64.20;;;;;;5049984;28;19917;-64
2021/09/20 12:46:40;;;;;;;;;;;17.60;64.50;;;;;;5051524;28;19936;-64
2021/09/20 12:49:07;;;;;;;;;;;17.60;64.60;;;;;;5051652;28;19916;-64
2021/09/20 12:51:34;;;;;;;;;;;17.70;64.40;;;;;;5051158;28;19921;-64
2021/09/20 12:54:00;;;;;;;;;;;17.80;64.30;;;;;;5050738;28;19951;-65
2021/09/20 12:56:34;;;;;;;;;;;17.70;63.70;;;;;;5051046;28;20369;-64
2021/09/20 12:59:13;;;;;;;;;;;17.70;63.70;;;;;;5066712;28;19971;-65
2021/09/20 13:01:45;;;;;;;;;;;17.70;64.20;;;;;;5050847;28;19967;-63
2021/09/20 13:04:21;;;;;;;;;;;17.80;64.50;;;;;;5049552;28;19916;-64
2021/09/20 13:07:10;;;;;;;;;;;17.90;63.90;;;;;;5051171;28;19921;-64
2021/09/20 13:09:37;;;;;;;;;;;17.90;64.20;;;;;;5050479;28;19925;-63
2021/09/20 13:12:14;;;;;;;;;;;17.90;63.40;;;;;;5041692;28;20004;-65
2021/09/20 13:14:49;;;;;;;;;;;17.80;62.80;;;;;;5050950;28;20372;-64
2021/09/20 13:17:15;;;;;;;;;;;17.70;62.70;;;;;;5053115;28;19923;-64
2021/09/20 13:19:59;;;;;;;;;;;17.70;63.50;;;;;;5051004;28;19921;-65
2021/09/20 13:22:25;;;;;;;;;;;17.70;63.40;;;;;;5049678;28;20373;-64
2021/09/20 13:24:51;;;;;;;;;;;17.70;62.80;;;;;;5050806;28;19924;-64
2021/09/20 13:27:17;;;;;;;;;;;17.70;62.30;;;;;;5051136;28;20287;-65
2021/09/20 13:29:42;;;;;;;;;;;17.60;62.50;;;;;;5050993;28;19924;-64
2021/09/20 13:32:08;;;;;;;;;;;17.70;62.70;;;;;;5051324;28;20285;-64
2021/09/20 13:34:34;;;;;;;;;;;17.70;62.60;;;;;;5050501;28;19978;-64
2021/09/20 13:37:00;;;;;;;;;;;17.60;62.40;;;;;;5051708;28;19916;-64
2021/09/20 13:39:26;;;;;;;;;;;17.60;62.40;;;;;;5051306;28;19925;-64
2021/09/20 13:41:52;;;;;;;;;;;17.60;62.70;;;;;;5051788;28;20381;-64
2021/09/20 13:44:17;;;;;;;;;;;17.60;62.20;;;;;;5051025;28;19917;-64
2021/09/20 13:46:43;;;;;;;;;;;17.50;62.00;;;;;;5051390;28;20035;-64
2021/09/20 13:49:08;;;;;;;;;;;17.50;62.20;;;;;;5051532;28;19967;-63
2021/09/20 13:51:34;;;;;;;;;;;17.40;62.30;;;;;;5051086;28;19917;-64
2021/09/20 13:54:02;;;;;;;;;;;17.40;62.30;;;;;;5051200;28;19940;-65
2021/09/20 13:56:28;;;;;;;;;;;17.30;62.40;;;;;;5032312;28;19916;-65
2021/09/20 13:58:54;;;;;;;;;;;17.30;62.60;;;;;;5051066;28;20376;-65
2021/09/20 14:01:24;;;;;;;;;;;17.40;62.70;;;;;;5048010;28;20342;-65
2021/09/20 14:03:54;;;;;;;;;;;17.30;62.70;;;;;;5051129;28;20355;-65
2021/09/20 14:06:20;;;;;;;;;;;17.40;62.80;;;;;;5047226;28;19921;-65
2021/09/20 14:08:46;;;;;;;;;;;17.50;62.40;;;;;;5050885;28;19917;-65
2021/09/20 14:11:12;;;;;;;;;;;17.30;62.50;;;;;;5051394;28;20347;-65
2021/09/20 14:13:38;;;;;;;;;;;17.30;62.50;;;;;;5054182;28;19917;-63
2021/09/20 14:16:05;;;;;;;;;;;17.30;62.60;;;;;;5045789;28;20007;-63